This is the latest recevied weather packets stored in our database for station/object SP2ARQ-13. If no packets are shown the sender has not sent any weather packets the latest 10 day(s).
| Time | Temp. | Humidity | Pressure | Rain* | Wind** | Luminosity | Snow |
|---|---|---|---|---|---|---|---|
| 1777784267 | 13.33° C | 59% | 1016.2 hPa | - | - | - | - |
| 1777783367 | 12.78° C | 61% | 1016.3 hPa | - | - | - | - |
| 1777782467 | 12.22° C | 63% | 1016.4 hPa | - | - | - | - |
| 1777781567 | 11.67° C | 65% | 1016.3 hPa | - | - | - | - |
| 1777780667 | 11.11° C | 65% | 1016.2 hPa | - | - | - | - |
| 1777779766 | 11.11° C | 64% | 1016.2 hPa | - | - | - | - |
| 1777778866 | 11.11° C | 64% | 1016.3 hPa | - | - | - | - |
| 1777777966 | 11.11° C | 64% | 1016.4 hPa | - | - | - | - |
| 1777777066 | 11.67° C | 64% | 1016.4 hPa | - | - | - | - |
| 1777776166 | 11.67° C | 63% | 1016.3 hPa | - | - | - | - |
| 1777775266 | 12.78° C | 61% | 1016.5 hPa | - | - | - | - |
| 1777774365 | 12.78° C | 59% | 1016.5 hPa | - | - | - | - |
| 1777773465 | 12.78° C | 59% | 1016.6 hPa | - | - | - | - |
| 1777772565 | 12.78° C | 60% | 1016.8 hPa | - | - | - | - |
| 1777771665 | 12.78° C | 59% | 1016.8 hPa | - | - | - | - |
| 1777770765 | 12.78° C | 60% | 1016.8 hPa | - | - | - | - |
| 1777769865 | 12.78° C | 60% | 1016.8 hPa | - | - | - | - |
| 1777768965 | 12.78° C | 60% | 1017 hPa | - | - | - | - |
| 1777768064 | 12.78° C | 59% | 1016.9 hPa | - | - | - | - |
| 1777767164 | 13.33° C | 57% | 1017 hPa | - | - | - | - |
| 1777766264 | 13.89° C | 55% | 1017.1 hPa | - | - | - | - |
| 1777765364 | 15° C | 52% | 1017.1 hPa | - | - | - | - |
| 1777764464 | 14.44° C | 52% | 1017.1 hPa | - | - | - | - |
| 1777763566 | 13.89° C | 55% | 1017.4 hPa | - | - | - | - |
| 1777762663 | 14.44° C | 55% | 1017.4 hPa | - | - | - | - |
* Rain since midnight (hover to see other rain measurements)
** Current wind speed in m/s (hover to see current wind gust speed)